Time;durP1;ratioP1;P1;durP2;ratioP2;P2;SDS_P1;SDS_P2;PMS_P1;PMS_P2;Temp;Humidity;BMP_temperature;BMP_pressure;BME280_temperature;BME280_humidity;BME280_pressure;Samples;Min_cycle;Max_cycle;Signal;HPM_P1;HPM_P2
2021/09/18 00:01:53;;;;;;;52.73;40.27;;;;;;;;;;5097146;28;20450;-75
2021/09/18 00:04:22;;;;;;;52.73;41.30;;;;;;;;;;5097159;28;20534;-74
2021/09/18 00:06:49;;;;;;;56.90;40.60;;;;;;;;;;5097110;28;20527;-75
2021/09/18 00:09:16;;;;;;;52.43;42.00;;;;;;;;;;5097113;28;20446;-73
2021/09/18 00:11:44;;;;;;;48.67;39.47;;;;;;;;;;5097026;28;20449;-76
2021/09/18 00:14:12;;;;;;;49.23;38.57;;;;;;;;;;5096883;28;20454;-76
2021/09/18 00:16:39;;;;;;;46.97;37.60;;;;;;;;;;5096624;28;20444;-75
2021/09/18 00:19:07;;;;;;;50.83;39.27;;;;;;;;;;5096984;28;20454;-76
2021/09/18 00:21:35;;;;;;;52.10;39.40;;;;;;;;;;5096955;28;20530;-75
2021/09/18 00:24:03;;;;;;;51.07;39.57;;;;;;;;;;5096498;28;20445;-75
2021/09/18 00:26:32;;;;;;;49.23;39.73;;;;;;;;;;5096474;28;20442;-76
2021/09/18 00:28:59;;;;;;;49.27;38.83;;;;;;;;;;5096796;28;20476;-76
2021/09/18 00:31:26;;;;;;;59.37;40.33;;;;;;;;;;5098880;28;20926;-75
2021/09/18 00:33:54;;;;;;;51.27;39.93;;;;;;;;;;5097915;28;20548;-75
2021/09/18 00:36:21;;;;;;;51.40;39.33;;;;;;;;;;5096483;28;20483;-76
2021/09/18 00:38:50;;;;;;;44.87;36.30;;;;;;;;;;5097080;28;20442;-76
2021/09/18 00:41:17;;;;;;;56.23;37.37;;;;;;;;;;5096161;28;20966;-75
2021/09/18 00:43:49;;;;;;;42.57;34.43;;;;;;;;;;5096495;28;20449;-75
2021/09/18 00:46:17;;;;;;;50.67;36.87;;;;;;;;;;5097100;28;20443;-76
2021/09/18 00:48:44;;;;;;;46.13;36.07;;;;;;;;;;5096076;28;20441;-74
2021/09/18 00:51:11;;;;;;;42.70;34.73;;;;;;;;;;5095980;28;20921;-74
2021/09/18 00:53:38;;;;;;;45.00;34.37;;;;;;;;;;5096286;28;20453;-75
2021/09/18 00:56:07;;;;;;;45.53;34.40;;;;;;;;;;5095872;28;21076;-74
2021/09/18 00:58:34;;;;;;;41.50;33.67;;;;;;;;;;5096094;28;20453;-75
2021/09/18 01:01:01;;;;;;;46.13;35.87;;;;;;;;;;5095036;28;20440;-74
2021/09/18 01:03:29;;;;;;;45.40;33.60;;;;;;;;;;5096244;28;20432;-74
2021/09/18 01:05:57;;;;;;;45.60;34.50;;;;;;;;;;5096305;28;20449;-74
2021/09/18 01:08:26;;;;;;;42.60;32.50;;;;;;;;;;5095800;28;20437;-74
2021/09/18 01:10:53;;;;;;;38.10;32.27;;;;;;;;;;5096467;28;20464;-74
2021/09/18 01:13:22;;;;;;;39.77;32.10;;;;;;;;;;5095874;28;20445;-74
2021/09/18 01:15:50;;;;;;;38.93;31.17;;;;;;;;;;5095851;28;20472;-74
2021/09/18 01:18:18;;;;;;;44.23;31.30;;;;;;;;;;5095444;28;20943;-74
2021/09/18 01:20:49;;;;;;;38.83;30.57;;;;;;;;;;5095742;28;20496;-74
2021/09/18 01:23:21;;;;;;;42.07;30.80;;;;;;;;;;5095393;28;20440;-74
2021/09/18 01:25:49;;;;;;;39.23;29.60;;;;;;;;;;5095803;28;20442;-74
2021/09/18 01:28:16;;;;;;;39.37;31.43;;;;;;;;;;5095109;28;20982;-74
2021/09/18 01:30:43;;;;;;;41.73;31.60;;;;;;;;;;5095640;28;20445;-75
2021/09/18 01:33:11;;;;;;;43.17;31.37;;;;;;;;;;5096027;28;20533;-74
2021/09/18 01:35:39;;;;;;;38.43;31.17;;;;;;;;;;5095125;28;20509;-74
2021/09/18 01:38:06;;;;;;;36.90;30.37;;;;;;;;;;5096104;28;20447;-74
2021/09/18 01:40:36;;;;;;;41.93;30.00;;;;;;;;;;5096141;28;20539;-74
2021/09/18 01:43:03;;;;;;;34.10;28.60;;;;;;;;;;5095273;28;20547;-73
2021/09/18 01:45:32;;;;;;;36.40;28.80;;;;;;;;;;5095236;28;20523;-74
2021/09/18 01:48:00;;;;;;;35.00;29.60;;;;;;;;;;5094871;28;21011;-73
2021/09/18 01:50:29;;;;;;;33.80;28.07;;;;;;;;;;5095100;28;20956;-73
2021/09/18 01:52:57;;;;;;;33.60;28.30;;;;;;;;;;5095895;28;20449;-75
2021/09/18 01:55:25;;;;;;;34.20;27.17;;;;;;;;;;5095173;28;20474;-74
2021/09/18 01:57:55;;;;;;;37.10;28.53;;;;;;;;;;5094893;28;20502;-74
2021/09/18 02:00:22;;;;;;;31.30;26.70;;;;;;;;;;5094638;28;20440;-73
2021/09/18 02:02:49;;;;;;;31.03;26.63;;;;;;;;;;5095360;28;20447;-73
2021/09/18 02:05:17;;;;;;;34.30;27.77;;;;;;;;;;5094776;28;20930;-73
2021/09/18 02:07:45;;;;;;;36.77;27.13;;;;;;;;;;5095446;28;20444;-73
2021/09/18 02:10:13;;;;;;;32.47;26.23;;;;;;;;;;5094124;28;21050;-74
2021/09/18 02:12:41;;;;;;;34.07;27.90;;;;;;;;;;5094624;28;20437;-73
2021/09/18 02:15:10;;;;;;;34.80;27.03;;;;;;;;;;5095221;28;20477;-74
2021/09/18 02:17:38;;;;;;;33.73;26.10;;;;;;;;;;5094978;28;20437;-74
2021/09/18 02:20:06;;;;;;;28.33;24.97;;;;;;;;;;5094281;28;20460;-73
2021/09/18 02:22:33;;;;;;;31.17;25.37;;;;;;;;;;5094550;28;20448;-74
2021/09/18 02:25:00;;;;;;;32.23;24.67;;;;;;;;;;5094190;28;21020;-73
2021/09/18 02:27:28;;;;;;;26.37;22.50;;;;;;;;;;5094183;28;20914;-73
2021/09/18 02:29:55;;;;;;;23.90;21.40;;;;;;;;;;5094746;28;20436;-73
2021/09/18 02:32:23;;;;;;;27.27;21.63;;;;;;;;;;5094586;28;20443;-74
2021/09/18 02:34:51;;;;;;;27.90;21.17;;;;;;;;;;5094588;28;20440;-73
2021/09/18 02:37:20;;;;;;;23.67;20.43;;;;;;;;;;5093947;28;20444;-75
2021/09/18 02:39:47;;;;;;;22.63;19.13;;;;;;;;;;5093990;28;20439;-74
2021/09/18 02:42:14;;;;;;;29.00;19.40;;;;;;;;;;5094636;28;20446;-74
2021/09/18 02:44:42;;;;;;;23.37;20.50;;;;;;;;;;5093917;28;20523;-74
2021/09/18 02:47:09;;;;;;;24.70;20.37;;;;;;;;;;5094145;28;20447;-74
2021/09/18 02:49:39;;;;;;;24.57;20.63;;;;;;;;;;5094078;28;20533;-74
2021/09/18 02:52:06;;;;;;;24.97;19.60;;;;;;;;;;5094659;28;20785;-74
2021/09/18 02:54:34;;;;;;;24.83;19.27;;;;;;;;;;5093681;28;20454;-74
2021/09/18 02:57:01;;;;;;;23.07;19.20;;;;;;;;;;5093880;28;20485;-74
2021/09/18 02:59:28;;;;;;;20.97;18.67;;;;;;;;;;5093535;28;20455;-74
2021/09/18 03:01:56;;;;;;;30.37;18.77;;;;;;;;;;5093930;28;20787;-74
2021/09/18 03:04:23;;;;;;;23.87;19.70;;;;;;;;;;5093958;28;20806;-73
2021/09/18 03:06:52;;;;;;;22.63;19.17;;;;;;;;;;5093497;28;20445;-72
2021/09/18 03:09:19;;;;;;;21.87;19.50;;;;;;;;;;5094081;28;20530;-73
2021/09/18 03:11:46;;;;;;;19.50;17.30;;;;;;;;;;5093445;28;20526;-74
2021/09/18 03:14:13;;;;;;;22.00;19.30;;;;;;;;;;5093180;28;20930;-74
2021/09/18 03:16:41;;;;;;;24.00;18.60;;;;;;;;;;5093272;28;20473;-74
2021/09/18 03:19:08;;;;;;;20.53;18.27;;;;;;;;;;5093266;28;20446;-73
2021/09/18 03:21:35;;;;;;;21.10;18.07;;;;;;;;;;5093208;28;20443;-73
2021/09/18 03:24:04;;;;;;;19.77;17.40;;;;;;;;;;5092762;28;20446;-73
2021/09/18 03:26:31;;;;;;;26.73;19.30;;;;;;;;;;5093057;28;20935;-74
2021/09/18 03:28:58;;;;;;;20.13;18.13;;;;;;;;;;5093047;28;20473;-74
2021/09/18 03:31:25;;;;;;;24.63;17.60;;;;;;;;;;5092801;28;20946;-73
2021/09/18 03:33:52;;;;;;;20.03;17.93;;;;;;;;;;5093144;28;20442;-73
2021/09/18 03:36:19;;;;;;;27.13;17.70;;;;;;;;;;5093082;28;20478;-76
2021/09/18 03:38:47;;;;;;;21.20;17.53;;;;;;;;;;5092759;28;20947;-74
2021/09/18 03:41:15;;;;;;;20.20;17.90;;;;;;;;;;5093314;28;20450;-74
2021/09/18 03:43:42;;;;;;;20.53;17.63;;;;;;;;;;5092644;28;20442;-74
2021/09/18 03:46:10;;;;;;;22.30;17.97;;;;;;;;;;5092812;28;20444;-74
2021/09/18 03:48:37;;;;;;;21.40;19.17;;;;;;;;;;5092812;28;20440;-74
2021/09/18 03:51:04;;;;;;;20.33;17.97;;;;;;;;;;5093133;28;20443;-74
2021/09/18 03:53:32;;;;;;;21.90;17.87;;;;;;;;;;5092747;28;20445;-74
2021/09/18 03:55:59;;;;;;;24.47;18.80;;;;;;;;;;5092791;28;20529;-73
2021/09/18 03:58:27;;;;;;;23.33;18.10;;;;;;;;;;5093194;28;20448;-74
2021/09/18 04:00:55;;;;;;;20.87;18.47;;;;;;;;;;5092665;28;20439;-73
2021/09/18 04:03:22;;;;;;;22.50;17.83;;;;;;;;;;5093073;28;20450;-74
2021/09/18 04:05:49;;;;;;;20.93;18.50;;;;;;;;;;5092815;28;20452;-74
2021/09/18 04:08:16;;;;;;;20.90;18.60;;;;;;;;;;5092499;28;20440;-74
2021/09/18 04:10:45;;;;;;;20.10;17.93;;;;;;;;;;5092877;28;20447;-73
2021/09/18 04:13:12;;;;;;;20.60;17.33;;;;;;;;;;5092818;28;20569;-72
2021/09/18 04:15:41;;;;;;;20.00;17.30;;;;;;;;;;5092749;28;20480;-71
2021/09/18 04:18:08;;;;;;;21.23;16.47;;;;;;;;;;5092155;28;20440;-74
2021/09/18 04:20:35;;;;;;;16.37;14.57;;;;;;;;;;5092636;28;20441;-74
2021/09/18 04:23:03;;;;;;;18.80;15.47;;;;;;;;;;5092409;28;20449;-74
2021/09/18 04:25:30;;;;;;;15.97;14.23;;;;;;;;;;5092423;28;20444;-75
2021/09/18 04:27:57;;;;;;;15.30;13.10;;;;;;;;;;5092354;28;20991;-75
2021/09/18 04:30:24;;;;;;;14.37;12.00;;;;;;;;;;5093178;28;20435;-76
2021/09/18 04:32:53;;;;;;;13.90;12.40;;;;;;;;;;5092708;28;20538;-76
2021/09/18 04:35:20;;;;;;;15.63;12.73;;;;;;;;;;5095916;28;20471;-75
2021/09/18 04:37:47;;;;;;;16.70;12.27;;;;;;;;;;5096513;28;20495;-75
2021/09/18 04:40:15;;;;;;;21.80;12.40;;;;;;;;;;5095976;28;20450;-76
2021/09/18 04:42:42;;;;;;;14.70;11.97;;;;;;;;;;5096130;28;20532;-75
2021/09/18 04:45:09;;;;;;;13.30;11.27;;;;;;;;;;5096200;28;20447;-75
2021/09/18 04:47:37;;;;;;;15.50;11.37;;;;;;;;;;5096103;28;20475;-75
2021/09/18 04:50:06;;;;;;;12.17;10.97;;;;;;;;;;5095866;28;20437;-75
2021/09/18 04:52:33;;;;;;;12.60;11.30;;;;;;;;;;5095983;28;20530;-75
2021/09/18 04:55:00;;;;;;;12.90;11.37;;;;;;;;;;5095849;28;20484;-76
2021/09/18 04:57:28;;;;;;;14.10;11.70;;;;;;;;;;5095459;28;20999;-75
2021/09/18 04:59:55;;;;;;;13.33;11.00;;;;;;;;;;5095533;28;20441;-76
2021/09/18 05:02:22;;;;;;;12.40;11.10;;;;;;;;;;5095688;28;20909;-76
2021/09/18 05:04:49;;;;;;;13.33;11.93;;;;;;;;;;5096142;28;20468;-75
2021/09/18 05:07:18;;;;;;;12.60;11.23;;;;;;;;;;5095305;28;20452;-75
2021/09/18 05:09:45;;;;;;;12.90;11.60;;;;;;;;;;5095765;28;20444;-76
2021/09/18 05:12:12;;;;;;;13.63;12.10;;;;;;;;;;5096710;28;20446;-76
2021/09/18 05:14:39;;;;;;;13.33;12.00;;;;;;;;;;5096273;28;20441;-75
2021/09/18 05:17:07;;;;;;;12.43;11.13;;;;;;;;;;5099094;28;20921;-76
2021/09/18 05:19:34;;;;;;;16.53;12.03;;;;;;;;;;5096282;28;20439;-75
2021/09/18 05:22:01;;;;;;;13.60;12.20;;;;;;;;;;5096665;28;20486;-75
2021/09/18 05:24:30;;;;;;;12.53;11.23;;;;;;;;;;5095956;28;20446;-74
2021/09/18 05:26:57;;;;;;;10.90;9.70;;;;;;;;;;5095326;28;20527;-75
2021/09/18 05:29:24;;;;;;;16.73;13.47;;;;;;;;;;5095368;28;20981;-75
2021/09/18 05:31:51;;;;;;;14.30;11.00;;;;;;;;;;5095603;28;20443;-75
2021/09/18 05:34:19;;;;;;;12.20;10.80;;;;;;;;;;5095537;28;20944;-75
2021/09/18 05:36:46;;;;;;;9.63;8.63;;;;;;;;;;5095479;28;20549;-75
2021/09/18 05:39:13;;;;;;;12.27;9.43;;;;;;;;;;5095819;28;20501;-74
2021/09/18 05:41:42;;;;;;;12.13;9.37;;;;;;;;;;5095353;28;20474;-77
2021/09/18 05:44:10;;;;;;;9.47;8.57;;;;;;;;;;5095078;28;20953;-76
2021/09/18 05:46:37;;;;;;;9.23;8.23;;;;;;;;;;5094523;28;20504;-76
2021/09/18 05:49:04;;;;;;;10.53;9.43;;;;;;;;;;5095326;28;20440;-76
2021/09/18 05:51:31;;;;;;;9.80;8.67;;;;;;;;;;5095161;28;20450;-75
2021/09/18 05:53:58;;;;;;;9.93;8.73;;;;;;;;;;5095083;28;20436;-77
2021/09/18 05:56:26;;;;;;;10.43;9.03;;;;;;;;;;5095192;28;20480;-75
2021/09/18 05:58:54;;;;;;;9.67;8.57;;;;;;;;;;5095088;28;20456;-75
2021/09/18 06:01:22;;;;;;;14.03;9.63;;;;;;;;;;5094647;28;20533;-75
2021/09/18 06:03:49;;;;;;;11.07;9.20;;;;;;;;;;5095246;28;20528;-77
2021/09/18 06:06:16;;;;;;;12.77;9.17;;;;;;;;;;5094635;28;20456;-75
2021/09/18 06:08:43;;;;;;;10.20;8.93;;;;;;;;;;5094565;28;20941;-76
2021/09/18 06:11:10;;;;;;;12.40;9.53;;;;;;;;;;5094498;28;20446;-74
2021/09/18 06:13:38;;;;;;;13.70;9.20;;;;;;;;;;5094703;28;20775;-76
2021/09/18 06:16:06;;;;;;;11.43;10.00;;;;;;;;;;5094564;28;20450;-76
2021/09/18 06:18:34;;;;;;;13.37;9.73;;;;;;;;;;5094360;28;20447;-75
2021/09/18 06:21:03;;;;;;;11.10;9.90;;;;;;;;;;5094346;28;20933;-76
2021/09/18 06:23:31;;;;;;;13.77;9.87;;;;;;;;;;5094295;28;20443;-76
2021/09/18 06:25:58;;;;;;;15.03;10.57;;;;;;;;;;5094463;28;20440;-76
2021/09/18 06:28:25;;;;;;;10.80;9.70;;;;;;;;;;5094065;28;21010;-77
2021/09/18 06:30:52;;;;;;;10.63;9.50;;;;;;;;;;5094463;28;20532;-76
2021/09/18 06:33:21;;;;;;;10.83;8.50;;;;;;;;;;5094181;28;20936;-77
2021/09/18 06:35:48;;;;;;;10.57;9.47;;;;;;;;;;5094062;28;20536;-76
2021/09/18 06:38:21;;;;;;;12.40;10.50;;;;;;;;;;5094243;28;20832;-76
2021/09/18 06:40:49;;;;;;;9.80;8.80;;;;;;;;;;5094090;28;20501;-75
2021/09/18 06:43:16;;;;;;;12.40;10.43;;;;;;;;;;5094008;28;20433;-76
2021/09/18 06:45:43;;;;;;;11.60;9.87;;;;;;;;;;5094784;28;20809;-75
2021/09/18 06:48:11;;;;;;;9.10;8.30;;;;;;;;;;5094446;28;20444;-75
2021/09/18 06:50:39;;;;;;;10.17;9.17;;;;;;;;;;5093755;28;20945;-74
2021/09/18 06:53:07;;;;;;;8.60;7.73;;;;;;;;;;5093919;28;20440;-75
2021/09/18 06:55:34;;;;;;;9.50;8.50;;;;;;;;;;5094224;28;20470;-75
2021/09/18 06:58:01;;;;;;;14.10;9.17;;;;;;;;;;5093506;28;20492;-71
2021/09/18 07:00:29;;;;;;;9.50;8.60;;;;;;;;;;5092906;28;20437;-70
2021/09/18 07:02:56;;;;;;;8.27;7.40;;;;;;;;;;5093877;28;20963;-71
2021/09/18 07:05:23;;;;;;;9.13;7.83;;;;;;;;;;5094252;28;20935;-69
2021/09/18 07:07:52;;;;;;;8.70;7.80;;;;;;;;;;5093539;28;20444;-70
2021/09/18 07:10:19;;;;;;;12.77;8.40;;;;;;;;;;5093843;28;20535;-74
2021/09/18 07:12:48;;;;;;;11.53;8.20;;;;;;;;;;5093830;28;20877;-76
2021/09/18 07:15:15;;;;;;;12.77;7.67;;;;;;;;;;5093351;28;20433;-77
2021/09/18 07:17:43;;;;;;;7.83;7.03;;;;;;;;;;5093550;28;20472;-77
2021/09/18 07:20:10;;;;;;;8.03;7.20;;;;;;;;;;5093730;28;20532;-76
2021/09/18 07:22:38;;;;;;;7.47;6.77;;;;;;;;;;5093693;28;20440;-76
2021/09/18 07:25:07;;;;;;;7.50;5.63;;;;;;;;;;5093685;28;20524;-76
2021/09/18 07:27:34;;;;;;;16.03;5.70;;;;;;;;;;5093785;28;20445;-75
2021/09/18 07:30:01;;;;;;;7.57;6.17;;;;;;;;;;5094011;28;20429;-77
2021/09/18 07:32:29;;;;;;;7.40;5.60;;;;;;;;;;5093599;28;20445;-76
2021/09/18 07:34:56;;;;;;;7.37;6.37;;;;;;;;;;5093549;28;20440;-76
2021/09/18 07:37:23;;;;;;;8.70;5.87;;;;;;;;;;5093583;28;20487;-75
2021/09/18 07:39:50;;;;;;;7.23;6.10;;;;;;;;;;5093908;28;20444;-76
2021/09/18 07:42:19;;;;;;;9.70;5.93;;;;;;;;;;5094046;28;20444;-76
2021/09/18 07:44:46;;;;;;;6.00;5.40;;;;;;;;;;5093498;28;20452;-76
2021/09/18 07:47:14;;;;;;;6.07;5.40;;;;;;;;;;5093128;28;20529;-76
2021/09/18 07:49:41;;;;;;;7.50;4.90;;;;;;;;;;5093105;28;20447;-76
2021/09/18 07:52:08;;;;;;;5.63;4.63;;;;;;;;;;5093370;28;20448;-76
2021/09/18 07:54:35;;;;;;;4.63;4.23;;;;;;;;;;5093059;28;20918;-77
2021/09/18 07:57:03;;;;;;;4.63;4.30;;;;;;;;;;5093445;28;20475;-76
2021/09/18 07:59:31;;;;;;;6.77;5.37;;;;;;;;;;5093880;28;20805;-76
2021/09/18 08:01:58;;;;;;;4.60;4.20;;;;;;;;;;5094027;28;20454;-76
2021/09/18 08:04:27;;;;;;;6.07;5.33;;;;;;;;;;5094332;28;20527;-76
2021/09/18 08:06:55;;;;;;;6.30;4.40;;;;;;;;;;5092946;28;20445;-77
2021/09/18 08:09:22;;;;;;;4.17;3.77;;;;;;;;;;5094681;28;20446;-77
2021/09/18 08:11:50;;;;;;;8.80;5.23;;;;;;;;;;5097120;28;20777;-75
2021/09/18 08:14:17;;;;;;;7.43;4.33;;;;;;;;;;5096740;28;20447;-77
2021/09/18 08:16:46;;;;;;;6.53;3.90;;;;;;;;;;5097122;28;20443;-76
2021/09/18 08:19:13;;;;;;;4.60;4.10;;;;;;;;;;5097440;28;20804;-77
2021/09/18 08:21:40;;;;;;;5.40;3.43;;;;;;;;;;5096936;28;20468;-76
2021/09/18 08:24:09;;;;;;;6.10;2.93;;;;;;;;;;5096894;28;20455;-77
2021/09/18 08:26:36;;;;;;;4.00;3.00;;;;;;;;;;5096544;28;20443;-77
2021/09/18 08:29:03;;;;;;;3.20;2.83;;;;;;;;;;5096935;28;20566;-77
2021/09/18 08:31:30;;;;;;;4.77;3.07;;;;;;;;;;5096783;28;20447;-76
2021/09/18 08:33:59;;;;;;;3.17;2.80;;;;;;;;;;5096422;28;20468;-76
2021/09/18 08:36:26;;;;;;;6.43;3.40;;;;;;;;;;5097087;28;20515;-77
2021/09/18 08:38:53;;;;;;;2.90;2.70;;;;;;;;;;5096543;28;20559;-76
2021/09/18 08:41:20;;;;;;;3.90;2.80;;;;;;;;;;5096940;28;20867;-76
2021/09/18 08:43:48;;;;;;;5.10;3.20;;;;;;;;;;5096507;28;20445;-76
2021/09/18 08:46:17;;;;;;;5.10;3.13;;;;;;;;;;5096162;28;20533;-76
2021/09/18 08:48:45;;;;;;;3.37;2.83;;;;;;;;;;5096359;28;20472;-77
2021/09/18 08:51:14;;;;;;;6.33;2.90;;;;;;;;;;5096464;28;20442;-78
2021/09/18 08:53:41;;;;;;;3.20;2.90;;;;;;;;;;5095912;28;20933;-77
2021/09/18 08:56:09;;;;;;;6.30;2.60;;;;;;;;;;5095939;28;20602;-76
2021/09/18 08:58:36;;;;;;;3.80;2.57;;;;;;;;;;5095893;28;20487;-76
2021/09/18 09:01:04;;;;;;;2.80;2.60;;;;;;;;;;5095928;28;20437;-78
2021/09/18 09:03:33;;;;;;;3.67;2.63;;;;;;;;;;5096219;28;20432;-77
2021/09/18 09:06:02;;;;;;;4.70;3.10;;;;;;;;;;5096075;28;20530;-77
2021/09/18 09:08:31;;;;;;;5.77;3.63;;;;;;;;;;5096010;28;20801;-77
2021/09/18 09:10:58;;;;;;;5.23;2.90;;;;;;;;;;5096547;28;20789;-76
2021/09/18 09:13:26;;;;;;;4.00;2.87;;;;;;;;;;5095969;28;20435;-77
2021/09/18 09:16:07;;;;;;;2.93;2.63;;;;;;;;;;5095600;28;20547;-77
2021/09/18 09:18:40;;;;;;;2.83;2.63;;;;;;;;;;5096073;28;20472;-76
2021/09/18 09:21:11;;;;;;;3.23;2.33;;;;;;;;;;5094962;28;20482;-76
2021/09/18 09:23:43;;;;;;;4.10;2.57;;;;;;;;;;5096263;28;20441;-76
2021/09/18 09:26:11;;;;;;;4.97;2.60;;;;;;;;;;5096176;28;20438;-77
2021/09/18 09:28:39;;;;;;;5.80;2.87;;;;;;;;;;5095675;28;20474;-76
2021/09/18 09:31:11;;;;;;;4.27;2.57;;;;;;;;;;5095743;28;20438;-76
2021/09/18 09:33:41;;;;;;;7.50;2.70;;;;;;;;;;5095644;28;20451;-77
2021/09/18 09:36:15;;;;;;;4.23;2.60;;;;;;;;;;5095680;28;20793;-77
2021/09/18 09:38:52;;;;;;;3.90;2.40;;;;;;;;;;5095480;28;20489;-76
2021/09/18 09:41:31;;;;;;;3.83;2.40;;;;;;;;;;5095869;28;20439;-76
2021/09/18 09:43:59;;;;;;;3.37;2.50;;;;;;;;;;5095002;28;20436;-76
2021/09/18 09:46:26;;;;;;;7.13;2.27;;;;;;;;;;5094904;28;21020;-78
2021/09/18 09:49:04;;;;;;;2.57;2.37;;;;;;;;;;5096003;28;20539;-78
2021/09/18 09:51:31;;;;;;;2.33;2.03;;;;;;;;;;5095750;28;20431;-77
2021/09/18 09:54:13;;;;;;;5.50;2.50;;;;;;;;;;5094843;28;20450;-77
2021/09/18 09:56:41;;;;;;;3.47;2.10;;;;;;;;;;5095846;28;20446;-76
2021/09/18 09:59:09;;;;;;;2.73;2.27;;;;;;;;;;5095022;28;20836;-76
2021/09/18 10:01:36;;;;;;;4.40;2.70;;;;;;;;;;5095230;28;20535;-77
2021/09/18 10:04:03;;;;;;;3.50;2.50;;;;;;;;;;5094827;28;21013;-78
2021/09/18 10:06:31;;;;;;;3.23;2.93;;;;;;;;;;5094936;28;20433;-78
2021/09/18 10:08:58;;;;;;;7.43;3.70;;;;;;;;;;5094776;28;20440;-77
2021/09/18 10:11:30;;;;;;;3.80;3.20;;;;;;;;;;5094942;28;20443;-76
2021/09/18 10:13:59;;;;;;;4.37;2.87;;;;;;;;;;5094545;28;20473;-76
2021/09/18 10:16:27;;;;;;;6.50;4.77;;;;;;;;;;5094402;28;20478;-76
2021/09/18 10:18:55;;;;;;;3.50;2.90;;;;;;;;;;5094292;28;20483;-77
2021/09/18 10:24:09;;;;;;;3.77;3.40;;;;;;;;;;5094974;28;20395;-77
2021/09/18 10:26:37;;;;;;;4.13;3.23;;;;;;;;;;5094337;28;20997;-71
2021/09/18 10:29:05;;;;;;;4.83;2.90;;;;;;;;;;5094307;28;20486;-73
2021/09/18 10:31:32;;;;;;;3.10;2.80;;;;;;;;;;5093157;28;20441;-73
2021/09/18 10:34:00;;;;;;;5.70;2.70;;;;;;;;;;5094088;28;20437;-73
2021/09/18 10:36:40;;;;;;;4.00;3.17;;;;;;;;;;5094098;28;20452;-73
2021/09/18 10:39:09;;;;;;;5.37;2.97;;;;;;;;;;5093772;28;20477;-73
2021/09/18 10:41:41;;;;;;;3.47;3.17;;;;;;;;;;5094594;28;20449;-73
2021/09/18 10:44:10;;;;;;;7.50;3.57;;;;;;;;;;5094262;28;20429;-72
2021/09/18 10:46:42;;;;;;;4.03;2.47;;;;;;;;;;5093868;28;20489;-73
2021/09/18 10:49:24;;;;;;;6.83;3.73;;;;;;;;;;5093284;28;20531;-73
2021/09/18 10:51:52;;;;;;;5.03;3.90;;;;;;;;;;5093650;28;20445;-74
2021/09/18 10:54:19;;;;;;;4.37;2.80;;;;;;;;;;5094144;28;20522;-73
2021/09/18 10:57:04;;;;;;;3.77;3.33;;;;;;;;;;5093951;28;20437;-71
2021/09/18 10:59:55;;;;;;;5.17;3.27;;;;;;;;;;5093726;28;20480;-73
2021/09/18 11:02:44;;;;;;;4.70;3.97;;;;;;;;;;5078813;28;20568;-73
2021/09/18 11:05:12;;;;;;;4.33;3.93;;;;;;;;;;5093958;28;20430;-73
2021/09/18 11:07:43;;;;;;;5.63;3.60;;;;;;;;;;5093738;28;20516;-73
2021/09/18 11:10:10;;;;;;;8.53;4.50;;;;;;;;;;5093762;28;20433;-73
2021/09/18 11:12:38;;;;;;;5.03;3.00;;;;;;;;;;5094071;28;20884;-73
2021/09/18 11:15:06;;;;;;;4.07;3.43;;;;;;;;;;5093690;28;20531;-73
2021/09/18 11:17:34;;;;;;;3.10;2.87;;;;;;;;;;5093227;28;20513;-73
2021/09/18 11:20:13;;;;;;;3.37;2.87;;;;;;;;;;5093847;28;20523;-74
2021/09/18 11:22:41;;;;;;;6.30;2.33;;;;;;;;;;5093838;28;20437;-73
2021/09/18 11:25:27;;;;;;;4.03;2.67;;;;;;;;;;5093344;28;20517;-73
2021/09/18 11:28:01;;;;;;;3.90;2.60;;;;;;;;;;5093058;28;20484;-73
2021/09/18 11:30:39;;;;;;;2.40;2.03;;;;;;;;;;5093470;28;20425;-73
2021/09/18 11:33:06;;;;;;;3.33;2.90;;;;;;;;;;5093899;28;20614;-73
2021/09/18 11:35:35;;;;;;;5.10;4.70;;;;;;;;;;5093234;28;20948;-73
2021/09/18 11:38:03;;;;;;;4.83;3.20;;;;;;;;;;5093191;28;20475;-73
2021/09/18 11:40:31;;;;;;;4.40;3.30;;;;;;;;;;5093121;28;20957;-73
2021/09/18 11:42:58;;;;;;;3.30;3.10;;;;;;;;;;5093136;28;20440;-74
2021/09/18 11:45:27;;;;;;;3.23;2.90;;;;;;;;;;5097658;28;20470;-73
2021/09/18 11:47:56;;;;;;;5.60;3.30;;;;;;;;;;5097741;28;20536;-73
2021/09/18 11:50:25;;;;;;;5.70;2.40;;;;;;;;;;5097233;28;20442;-73
2021/09/18 11:52:54;;;;;;;4.50;3.00;;;;;;;;;;5097161;28;21022;-73
2021/09/18 11:55:29;;;;;;;4.17;3.77;;;;;;;;;;5097624;28;20519;-73
2021/09/18 11:58:10;;;;;;;3.20;2.90;;;;;;;;;;5096947;28;20456;-72
2021/09/18 12:00:38;;;;;;;2.90;2.70;;;;;;;;;;5097046;28;20929;-73
2021/09/18 12:03:06;;;;;;;2.97;2.70;;;;;;;;;;5097022;28;21008;-73
2021/09/18 12:05:33;;;;;;;6.43;3.30;;;;;;;;;;5097207;28;20538;-72
2021/09/18 12:08:02;;;;;;;5.07;3.00;;;;;;;;;;5097070;28;20455;-74
2021/09/18 12:10:29;;;;;;;2.53;2.33;;;;;;;;;;5096759;28;20441;-72
2021/09/18 12:12:57;;;;;;;6.70;6.07;;;;;;;;;;5096831;28;20468;-72
2021/09/18 12:15:34;;;;;;;3.33;3.07;;;;;;;;;;5096722;28;20972;-74
2021/09/18 12:18:02;;;;;;;3.63;2.70;;;;;;;;;;5096468;28;20516;-73
2021/09/18 12:20:29;;;;;;;2.73;2.53;;;;;;;;;;5096670;28;20963;-73
2021/09/18 12:22:56;;;;;;;3.07;2.20;;;;;;;;;;5097123;28;20436;-73
2021/09/18 12:25:29;;;;;;;3.20;2.30;;;;;;;;;;5096287;28;20477;-73
2021/09/18 12:27:57;;;;;;;3.33;2.87;;;;;;;;;;5096259;28;20471;-74
2021/09/18 12:30:27;;;;;;;3.33;2.30;;;;;;;;;;5096850;28;20450;-72
2021/09/18 12:33:09;;;;;;;2.33;1.87;;;;;;;;;;5096920;28;20753;-73
2021/09/18 12:35:40;;;;;;;3.33;2.10;;;;;;;;;;5096672;28;20504;-73
2021/09/18 12:38:07;;;;;;;2.40;2.20;;;;;;;;;;5095916;28;20955;-72
2021/09/18 12:40:41;;;;;;;2.00;1.80;;;;;;;;;;5096306;28;20448;-72
2021/09/18 12:43:09;;;;;;;2.60;1.90;;;;;;;;;;5096351;28;20704;-73
2021/09/18 12:45:37;;;;;;;3.70;1.93;;;;;;;;;;5095981;28;20472;-74
2021/09/18 12:48:10;;;;;;;3.73;1.90;;;;;;;;;;5096505;28;20540;-74
2021/09/18 12:50:47;;;;;;;2.20;2.03;;;;;;;;;;5096469;28;20795;-74
2021/09/18 12:53:18;;;;;;;2.97;2.37;;;;;;;;;;5096165;28;20521;-75
2021/09/18 12:56:00;;;;;;;2.00;1.90;;;;;;;;;;5095739;28;20949;-72
2021/09/18 12:58:38;;;;;;;1.90;1.77;;;;;;;;;;5096155;28;20575;-73
2021/09/18 13:01:06;;;;;;;2.33;2.13;;;;;;;;;;5096660;28;20524;-72
2021/09/18 13:03:33;;;;;;;2.10;1.90;;;;;;;;;;5095991;28;20442;-74
2021/09/18 13:06:02;;;;;;;3.17;2.13;;;;;;;;;;5095997;28;20445;-71
2021/09/18 13:08:41;;;;;;;2.17;1.90;;;;;;;;;;5096425;28;20445;-74
2021/09/18 13:11:12;;;;;;;2.57;1.90;;;;;;;;;;5096140;28;20579;-72
2021/09/18 13:13:41;;;;;;;4.20;2.23;;;;;;;;;;5095186;28;20884;-72
2021/09/18 13:16:08;;;;;;;1.63;1.53;;;;;;;;;;5095820;28;20439;-72
2021/09/18 13:18:42;;;;;;;3.57;1.83;;;;;;;;;;5095668;28;20492;-73
2021/09/18 13:21:09;;;;;;;2.33;2.00;;;;;;;;;;5095951;28;20843;-73
2021/09/18 13:23:36;;;;;;;1.80;1.70;;;;;;;;;;5095981;28;20445;-73
2021/09/18 13:26:04;;;;;;;5.13;2.27;;;;;;;;;;5095746;28;20527;-71
2021/09/18 13:28:31;;;;;;;1.80;1.70;;;;;;;;;;5095686;28;20562;-72
2021/09/18 13:31:00;;;;;;;1.87;1.77;;;;;;;;;;5095301;28;20925;-72
2021/09/18 13:33:28;;;;;;;1.80;1.70;;;;;;;;;;5095407;28;20940;-72
2021/09/18 13:35:55;;;;;;;2.83;2.30;;;;;;;;;;5095289;28;20535;-72
2021/09/18 13:38:22;;;;;;;1.83;1.73;;;;;;;;;;5095378;28;20448;-73
2021/09/18 13:40:49;;;;;;;1.40;1.30;;;;;;;;;;5095242;28;20440;-72
2021/09/18 13:43:17;;;;;;;2.67;2.13;;;;;;;;;;5094915;28;20439;-72
2021/09/18 13:45:44;;;;;;;1.70;1.60;;;;;;;;;;5095785;28;20533;-73
2021/09/18 13:48:13;;;;;;;1.80;1.70;;;;;;;;;;5094982;28;20469;-73
2021/09/18 13:50:40;;;;;;;2.10;1.90;;;;;;;;;;5095444;28;20451;-72
2021/09/18 13:53:08;;;;;;;2.50;1.83;;;;;;;;;;5095760;28;20817;-72
2021/09/18 13:55:36;;;;;;;1.90;1.60;;;;;;;;;;5094749;28;20445;-72
2021/09/18 13:58:03;;;;;;;3.97;1.50;;;;;;;;;;5095279;28;20915;-72
2021/09/18 14:00:31;;;;;;;2.20;1.77;;;;;;;;;;5095227;28;20579;-72
2021/09/18 14:02:59;;;;;;;2.67;2.20;;;;;;;;;;5094784;28;20448;-73
2021/09/18 14:05:28;;;;;;;5.43;2.40;;;;;;;;;;5094560;28;20446;-73
2021/09/18 14:07:55;;;;;;;2.30;1.53;;;;;;;;;;5093767;28;21027;-73
2021/09/18 14:10:23;;;;;;;3.50;1.80;;;;;;;;;;5094394;28;20529;-74
2021/09/18 14:12:50;;;;;;;1.50;1.40;;;;;;;;;;5094854;28;20447;-74
2021/09/18 14:15:17;;;;;;;3.40;1.90;;;;;;;;;;5094955;28;20874;-73
2021/09/18 14:17:44;;;;;;;6.93;4.40;;;;;;;;;;5094794;28;20440;-72
2021/09/18 14:20:12;;;;;;;3.33;3.03;;;;;;;;;;5094468;28;20470;-73
2021/09/18 14:22:41;;;;;;;3.53;2.40;;;;;;;;;;5094642;28;20980;-74
2021/09/18 14:25:08;;;;;;;2.40;1.77;;;;;;;;;;5094581;28;20533;-73
2021/09/18 14:27:36;;;;;;;1.93;1.83;;;;;;;;;;5094463;28;20881;-74
2021/09/18 14:30:03;;;;;;;2.40;2.20;;;;;;;;;;5093254;28;20447;-73
2021/09/18 14:32:31;;;;;;;2.60;2.00;;;;;;;;;;5094543;28;20447;-73
2021/09/18 14:34:59;;;;;;;1.90;1.80;;;;;;;;;;5094507;28;20443;-73
2021/09/18 14:37:26;;;;;;;1.97;1.87;;;;;;;;;;5094418;28;20481;-73
2021/09/18 14:39:54;;;;;;;3.00;1.80;;;;;;;;;;5094484;28;20477;-74
2021/09/18 14:42:22;;;;;;;3.23;2.07;;;;;;;;;;5093892;28;20447;-73